sensor_id;sensor_type;location;lat;lon;timestamp;pressure;altitude;pressure_sealevel;temperature;humidity
19553;BME280;9420;50.876;7.012;2023-02-11T00:01:08;103089.28;;;13.94;82.69
19553;BME280;9420;50.876;7.012;2023-02-11T00:03:37;103089.28;;;13.91;84.15
19553;BME280;9420;50.876;7.012;2023-02-11T00:06:06;103083.00;;;14.06;82.06
19553;BME280;9420;50.876;7.012;2023-02-11T00:08:35;103081.97;;;14.26;81.33
19553;BME280;9420;50.876;7.012;2023-02-11T00:11:03;103073.97;;;14.43;80.17
19553;BME280;9420;50.876;7.012;2023-02-11T00:13:30;103074.09;;;14.22;80.35
19553;BME280;9420;50.876;7.012;2023-02-11T00:15:57;103078.41;;;14.35;79.89
19553;BME280;9420;50.876;7.012;2023-02-11T00:18:24;103082.28;;;13.84;81.33
19553;BME280;9420;50.876;7.012;2023-02-11T00:20:53;103078.59;;;14.09;81.25
19553;BME280;9420;50.876;7.012;2023-02-11T00:23:20;103075.09;;;14.01;81.66
19553;BME280;9420;50.876;7.012;2023-02-11T00:25:47;103071.47;;;14.17;81.73
19553;BME280;9420;50.876;7.012;2023-02-11T00:28:14;103063.47;;;14.23;81.41
19553;BME280;9420;50.876;7.012;2023-02-11T00:30:41;103060.97;;;14.05;81.94
19553;BME280;9420;50.876;7.012;2023-02-11T00:33:08;103051.28;;;13.98;81.78
19553;BME280;9420;50.876;7.012;2023-02-11T00:35:36;103055.56;;;14.19;81.54
19553;BME280;9420;50.876;7.012;2023-02-11T00:38:05;103052.97;;;14.11;82.14
19553;BME280;9420;50.876;7.012;2023-02-11T00:40:32;103057.47;;;13.97;82.25
19553;BME280;9420;50.876;7.012;2023-02-11T00:42:59;103059.28;;;13.92;82.66
19553;BME280;9420;50.876;7.012;2023-02-11T00:45:26;103050.47;;;13.87;83.84
19553;BME280;9420;50.876;7.012;2023-02-11T00:47:55;103052.19;;;13.94;84.26
19553;BME280;9420;50.876;7.012;2023-02-11T00:50:22;103050.50;;;13.84;85.07
19553;BME280;9420;50.876;7.012;2023-02-11T00:52:50;103049.69;;;13.69;85.53
19553;BME280;9420;50.876;7.012;2023-02-11T00:55:18;103036.97;;;14.20;86.14
19553;BME280;9420;50.876;7.012;2023-02-11T00:57:45;103028.78;;;14.54;83.40
19553;BME280;9420;50.876;7.012;2023-02-11T01:00:14;103033.69;;;13.93;86.77
19553;BME280;9420;50.876;7.012;2023-02-11T01:02:41;103027.91;;;14.52;83.81
19553;BME280;9420;50.876;7.012;2023-02-11T01:05:08;103032.66;;;14.13;84.69
19553;BME280;9420;50.876;7.012;2023-02-11T01:07:35;103034.28;;;14.26;85.77
19553;BME280;9420;50.876;7.012;2023-02-11T01:10:03;103037.63;;;14.56;83.50
19553;BME280;9420;50.876;7.012;2023-02-11T01:12:32;103041.03;;;14.67;82.14
19553;BME280;9420;50.876;7.012;2023-02-11T01:14:59;103039.50;;;14.42;84.30
19553;BME280;9420;50.876;7.012;2023-02-11T01:17:26;103050.38;;;14.02;88.13
19553;BME280;9420;50.876;7.012;2023-02-11T01:19:53;103043.97;;;14.35;89.10
19553;BME280;9420;50.876;7.012;2023-02-11T01:22:20;103041.28;;;14.40;87.04
19553;BME280;9420;50.876;7.012;2023-02-11T01:24:47;103046.28;;;14.73;85.16
19553;BME280;9420;50.876;7.012;2023-02-11T01:27:14;103042.25;;;14.32;85.94
19553;BME280;9420;50.876;7.012;2023-02-11T01:29:43;103043.13;;;14.35;87.46
19553;BME280;9420;50.876;7.012;2023-02-11T01:32:10;103048.38;;;14.38;87.49
19553;BME280;9420;50.876;7.012;2023-02-11T01:34:37;103045.34;;;13.59;92.72
19553;BME280;9420;50.876;7.012;2023-02-11T01:37:04;103037.94;;;14.13;91.68
19553;BME280;9420;50.876;7.012;2023-02-11T01:39:33;103043.00;;;14.44;88.13
19553;BME280;9420;50.876;7.012;2023-02-11T01:42:00;103038.25;;;13.70;92.31
19553;BME280;9420;50.876;7.012;2023-02-11T01:44:31;103055.19;;;13.29;94.67
19553;BME280;9420;50.876;7.012;2023-02-11T01:47:00;103061.38;;;13.18;98.46
19553;BME280;9420;50.876;7.012;2023-02-11T01:49:32;103052.63;;;13.07;100.00
19553;BME280;9420;50.876;7.012;2023-02-11T01:52:08;103058.75;;;13.19;99.95
19553;BME280;9420;50.876;7.012;2023-02-11T01:54:43;103059.03;;;14.28;93.45
19553;BME280;9420;50.876;7.012;2023-02-11T01:57:33;103063.88;;;13.55;94.83
19553;BME280;9420;50.876;7.012;2023-02-11T02:00:10;103063.81;;;13.66;95.67
19553;BME280;9420;50.876;7.012;2023-02-11T02:02:46;103063.09;;;13.34;96.68
19553;BME280;9420;50.876;7.012;2023-02-11T02:05:25;103062.16;;;13.50;98.73
19553;BME280;9420;50.876;7.012;2023-02-11T02:08:04;103053.94;;;13.95;95.44
19553;BME280;9420;50.876;7.012;2023-02-11T02:10:34;103051.50;;;13.65;98.15
19553;BME280;9420;50.876;7.012;2023-02-11T02:13:02;103059.50;;;13.53;98.04
19553;BME280;9420;50.876;7.012;2023-02-11T02:15:33;103064.47;;;14.07;96.07
19553;BME280;9420;50.876;7.012;2023-02-11T02:18:25;103061.34;;;13.27;97.13
19553;BME280;9420;50.876;7.012;2023-02-11T02:21:28;103054.31;;;13.32;100.00
19553;BME280;9420;50.876;7.012;2023-02-11T02:27:31;103062.19;;;13.39;100.00
19553;BME280;9420;50.876;7.012;2023-02-11T02:33:32;103057.88;;;13.10;100.00
19553;BME280;9420;50.876;7.012;2023-02-11T02:36:13;103050.78;;;13.22;99.33
19553;BME280;9420;50.876;7.012;2023-02-11T02:38:48;103033.97;;;13.37;100.00
19553;BME280;9420;50.876;7.012;2023-02-11T02:41:20;103034.94;;;12.97;100.00
19553;BME280;9420;50.876;7.012;2023-02-11T02:43:50;103027.94;;;13.06;100.00
19553;BME280;9420;50.876;7.012;2023-02-11T02:46:20;103031.22;;;13.58;100.00
19553;BME280;9420;50.876;7.012;2023-02-11T02:48:50;103032.28;;;13.21;100.00
19553;BME280;9420;50.876;7.012;2023-02-11T02:55:09;103025.97;;;13.49;99.97
19553;BME280;9420;50.876;7.012;2023-02-11T02:57:54;103016.19;;;13.68;98.36
19553;BME280;9420;50.876;7.012;2023-02-11T03:00:33;103003.16;;;13.27;98.96
19553;BME280;9420;50.876;7.012;2023-02-11T03:03:17;103008.19;;;13.72;96.93
19553;BME280;9420;50.876;7.012;2023-02-11T03:05:57;103012.03;;;12.99;100.00
19553;BME280;9420;50.876;7.012;2023-02-11T03:08:35;103001.56;;;12.53;100.00
19553;BME280;9420;50.876;7.012;2023-02-11T03:11:06;102990.00;;;13.03;100.00
19553;BME280;9420;50.876;7.012;2023-02-11T03:13:37;102989.88;;;13.34;100.00
19553;BME280;9420;50.876;7.012;2023-02-11T03:16:10;102986.97;;;13.81;99.20
19553;BME280;9420;50.876;7.012;2023-02-11T03:18:44;102996.97;;;13.34;99.90
19553;BME280;9420;50.876;7.012;2023-02-11T03:21:17;102993.53;;;13.02;100.00
19553;BME280;9420;50.876;7.012;2023-02-11T03:23:52;102998.88;;;12.74;100.00
19553;BME280;9420;50.876;7.012;2023-02-11T03:26:24;102998.66;;;13.45;99.83
19553;BME280;9420;50.876;7.012;2023-02-11T03:28:59;102993.88;;;13.97;96.00
19553;BME280;9420;50.876;7.012;2023-02-11T03:31:38;102995.66;;;13.98;94.27
19553;BME280;9420;50.876;7.012;2023-02-11T03:34:12;103003.81;;;13.68;96.88
19553;BME280;9420;50.876;7.012;2023-02-11T03:36:50;103006.56;;;13.53;97.09
19553;BME280;9420;50.876;7.012;2023-02-11T03:39:28;102996.78;;;13.63;95.31
19553;BME280;9420;50.876;7.012;2023-02-11T03:41:59;102998.78;;;13.14;100.00
19553;BME280;9420;50.876;7.012;2023-02-11T03:44:39;102986.53;;;12.86;100.00
19553;BME280;9420;50.876;7.012;2023-02-11T03:47:11;102983.78;;;13.19;100.00
19553;BME280;9420;50.876;7.012;2023-02-11T03:49:41;102990.59;;;13.65;96.68
19553;BME280;9420;50.876;7.012;2023-02-11T03:52:12;102991.56;;;13.47;97.49
19553;BME280;9420;50.876;7.012;2023-02-11T03:54:42;102988.94;;;13.47;98.01
19553;BME280;9420;50.876;7.012;2023-02-11T03:57:10;102986.38;;;13.29;98.35
19553;BME280;9420;50.876;7.012;2023-02-11T03:59:53;102983.84;;;13.07;100.00
19553;BME280;9420;50.876;7.012;2023-02-11T04:02:23;102977.66;;;12.93;100.00
19553;BME280;9420;50.876;7.012;2023-02-11T04:04:51;102983.63;;;13.49;100.00
19553;BME280;9420;50.876;7.012;2023-02-11T04:07:19;102990.91;;;13.05;99.75
19553;BME280;9420;50.876;7.012;2023-02-11T04:09:46;102999.78;;;12.66;100.00
19553;BME280;9420;50.876;7.012;2023-02-11T04:12:14;103003.31;;;12.72;100.00
19553;BME280;9420;50.876;7.012;2023-02-11T04:14:41;103007.66;;;12.87;100.00
19553;BME280;9420;50.876;7.012;2023-02-11T04:17:09;102997.81;;;13.33;100.00
19553;BME280;9420;50.876;7.012;2023-02-11T04:19:36;103001.38;;;13.29;99.67
19553;BME280;9420;50.876;7.012;2023-02-11T04:22:03;102999.47;;;13.61;97.71
19553;BME280;9420;50.876;7.012;2023-02-11T04:24:32;102994.28;;;13.40;99.03
19553;BME280;9420;50.876;7.012;2023-02-11T04:26:59;102992.66;;;13.09;100.00
19553;BME280;9420;50.876;7.012;2023-02-11T04:29:26;102997.72;;;13.51;100.00
19553;BME280;9420;50.876;7.012;2023-02-11T04:31:54;103004.13;;;12.91;100.00
19553;BME280;9420;50.876;7.012;2023-02-11T04:34:22;102992.56;;;13.24;100.00
19553;BME280;9420;50.876;7.012;2023-02-11T04:36:50;102988.94;;;13.46;100.00
19553;BME280;9420;50.876;7.012;2023-02-11T04:39:17;102984.44;;;13.60;98.85
19553;BME280;9420;50.876;7.012;2023-02-11T04:41:46;102977.72;;;12.82;100.00
19553;BME280;9420;50.876;7.012;2023-02-11T04:44:13;102964.22;;;13.53;100.00
19553;BME280;9420;50.876;7.012;2023-02-11T04:46:40;102967.88;;;13.28;100.00
19553;BME280;9420;50.876;7.012;2023-02-11T04:49:08;102967.94;;;13.13;100.00
19553;BME280;9420;50.876;7.012;2023-02-11T04:51:35;102961.69;;;13.26;100.00
19553;BME280;9420;50.876;7.012;2023-02-11T04:54:03;102954.47;;;13.57;99.98
19553;BME280;9420;50.876;7.012;2023-02-11T04:56:30;102960.91;;;13.10;100.00
19553;BME280;9420;50.876;7.012;2023-02-11T04:58:58;102954.31;;;13.76;99.19
19553;BME280;9420;50.876;7.012;2023-02-11T05:01:26;102957.34;;;13.17;100.00
19553;BME280;9420;50.876;7.012;2023-02-11T05:03:53;102951.75;;;13.67;100.00
19553;BME280;9420;50.876;7.012;2023-02-11T05:06:20;102953.88;;;13.05;100.00
19553;BME280;9420;50.876;7.012;2023-02-11T05:08:48;102962.59;;;13.22;100.00
19553;BME280;9420;50.876;7.012;2023-02-11T05:11:17;102966.88;;;13.50;99.84
19553;BME280;9420;50.876;7.012;2023-02-11T05:13:45;102982.88;;;13.23;100.00
19553;BME280;9420;50.876;7.012;2023-02-11T05:16:14;102982.06;;;13.15;100.00
19553;BME280;9420;50.876;7.012;2023-02-11T05:18:43;102972.38;;;13.11;100.00
19553;BME280;9420;50.876;7.012;2023-02-11T05:21:15;102965.28;;;13.17;100.00
19553;BME280;9420;50.876;7.012;2023-02-11T05:23:43;102974.88;;;13.42;100.00
19553;BME280;9420;50.876;7.012;2023-02-11T05:26:12;102962.34;;;13.67;99.85
19553;BME280;9420;50.876;7.012;2023-02-11T05:28:39;102969.38;;;13.71;97.83
19553;BME280;9420;50.876;7.012;2023-02-11T05:31:07;102965.06;;;13.53;99.14
19553;BME280;9420;50.876;7.012;2023-02-11T05:33:36;102969.59;;;13.35;100.00
19553;BME280;9420;50.876;7.012;2023-02-11T05:36:06;102956.97;;;13.76;97.75
19553;BME280;9420;50.876;7.012;2023-02-11T05:38:35;102959.72;;;13.66;97.85
19553;BME280;9420;50.876;7.012;2023-02-11T05:41:04;102962.06;;;14.02;96.71
19553;BME280;9420;50.876;7.012;2023-02-11T05:43:31;102964.41;;;14.40;93.88
19553;BME280;9420;50.876;7.012;2023-02-11T05:46:00;102961.81;;;14.37;93.64
19553;BME280;9420;50.876;7.012;2023-02-11T05:48:27;102959.53;;;14.81;90.29
19553;BME280;9420;50.876;7.012;2023-02-11T05:50:55;102956.25;;;14.61;91.17
19553;BME280;9420;50.876;7.012;2023-02-11T05:53:23;102963.41;;;14.53;91.35
19553;BME280;9420;50.876;7.012;2023-02-11T05:55:50;102960.09;;;14.29;93.28
19553;BME280;9420;50.876;7.012;2023-02-11T05:58:17;102965.84;;;14.72;90.83
19553;BME280;9420;50.876;7.012;2023-02-11T06:00:44;102957.19;;;14.55;91.83
19553;BME280;9420;50.876;7.012;2023-02-11T06:03:11;102949.72;;;13.99;95.61
19553;BME280;9420;50.876;7.012;2023-02-11T06:05:38;102952.00;;;14.45;94.82
19553;BME280;9420;50.876;7.012;2023-02-11T06:08:08;102944.06;;;14.42;95.10
19553;BME280;9420;50.876;7.012;2023-02-11T06:10:35;102940.38;;;14.58;92.79
19553;BME280;9420;50.876;7.012;2023-02-11T06:13:02;102937.03;;;14.38;94.00
19553;BME280;9420;50.876;7.012;2023-02-11T06:15:29;102942.03;;;14.66;93.89
19553;BME280;9420;50.876;7.012;2023-02-11T06:17:57;102930.66;;;14.57;94.07
19553;BME280;9420;50.876;7.012;2023-02-11T06:20:24;102937.91;;;14.43;96.27
19553;BME280;9420;50.876;7.012;2023-02-11T06:22:51;102931.81;;;14.35;96.60
19553;BME280;9420;50.876;7.012;2023-02-11T06:25:20;102936.78;;;13.62;100.00
19553;BME280;9420;50.876;7.012;2023-02-11T06:27:47;102936.13;;;13.25;100.00
19553;BME280;9420;50.876;7.012;2023-02-11T06:30:14;102939.44;;;13.60;100.00
19553;BME280;9420;50.876;7.012;2023-02-11T06:32:41;102941.44;;;13.28;100.00
19553;BME280;9420;50.876;7.012;2023-02-11T06:35:08;102942.91;;;13.68;100.00
19553;BME280;9420;50.876;7.012;2023-02-11T06:37:35;102946.75;;;13.16;100.00
19553;BME280;9420;50.876;7.012;2023-02-11T06:40:02;102953.69;;;13.41;100.00
19553;BME280;9420;50.876;7.012;2023-02-11T06:42:31;102941.78;;;13.99;100.00
19553;BME280;9420;50.876;7.012;2023-02-11T06:44:59;102961.44;;;13.68;100.00
19553;BME280;9420;50.876;7.012;2023-02-11T06:47:26;102956.53;;;14.33;100.00
19553;BME280;9420;50.876;7.012;2023-02-11T06:49:53;102954.47;;;13.61;100.00
19553;BME280;9420;50.876;7.012;2023-02-11T06:52:20;102953.72;;;14.50;100.00
19553;BME280;9420;50.876;7.012;2023-02-11T06:54:47;102955.56;;;14.39;100.00
19553;BME280;9420;50.876;7.012;2023-02-11T06:57:14;102960.25;;;14.08;100.00
19553;BME280;9420;50.876;7.012;2023-02-11T06:59:43;102966.09;;;13.24;100.00
19553;BME280;9420;50.876;7.012;2023-02-11T07:02:10;102966.03;;;13.39;100.00
19553;BME280;9420;50.876;7.012;2023-02-11T07:04:37;102968.63;;;13.49;100.00
19553;BME280;9420;50.876;7.012;2023-02-11T07:07:04;102974.16;;;14.38;100.00
19553;BME280;9420;50.876;7.012;2023-02-11T07:09:31;102977.94;;;14.06;100.00
19553;BME280;9420;50.876;7.012;2023-02-11T07:11:58;102988.13;;;13.30;100.00
19553;BME280;9420;50.876;7.012;2023-02-11T07:14:25;102987.09;;;13.59;100.00
19553;BME280;9420;50.876;7.012;2023-02-11T07:16:54;102990.66;;;13.59;100.00
19553;BME280;9420;50.876;7.012;2023-02-11T07:19:21;102989.09;;;13.19;100.00
19553;BME280;9420;50.876;7.012;2023-02-11T07:21:48;102980.59;;;14.03;100.00
19553;BME280;9420;50.876;7.012;2023-02-11T07:24:15;102970.06;;;13.99;100.00
19553;BME280;9420;50.876;7.012;2023-02-11T07:26:42;102975.69;;;13.47;100.00
19553;BME280;9420;50.876;7.012;2023-02-11T07:29:09;102983.69;;;13.41;100.00
19553;BME280;9420;50.876;7.012;2023-02-11T07:31:36;102991.56;;;13.47;100.00
19553;BME280;9420;50.876;7.012;2023-02-11T07:34:04;102995.13;;;13.48;100.00
19553;BME280;9420;50.876;7.012;2023-02-11T07:36:33;102998.78;;;13.17;100.00
19553;BME280;9420;50.876;7.012;2023-02-11T07:39:00;103002.31;;;13.19;100.00
19553;BME280;9420;50.876;7.012;2023-02-11T07:41:27;103007.53;;;13.31;100.00
19553;BME280;9420;50.876;7.012;2023-02-11T07:43:54;103010.03;;;13.58;100.00
19553;BME280;9420;50.876;7.012;2023-02-11T07:46:24;102999.13;;;14.09;100.00
19553;BME280;9420;50.876;7.012;2023-02-11T07:48:52;103011.03;;;13.37;100.00
19553;BME280;9420;50.876;7.012;2023-02-11T07:51:24;102996.50;;;14.05;100.00
19553;BME280;9420;50.876;7.012;2023-02-11T07:53:53;102996.78;;;13.63;100.00
19553;BME280;9420;50.876;7.012;2023-02-11T07:56:22;102999.13;;;14.09;100.00
19553;BME280;9420;50.876;7.012;2023-02-11T07:58:49;102990.50;;;13.77;100.00
19553;BME280;9420;50.876;7.012;2023-02-11T08:01:21;102998.59;;;13.54;100.00
19553;BME280;9420;50.876;7.012;2023-02-11T08:03:50;102994.25;;;13.46;100.00
19553;BME280;9420;50.876;7.012;2023-02-11T08:06:21;103003.91;;;13.53;100.00
19553;BME280;9420;50.876;7.012;2023-02-11T08:08:49;103001.91;;;13.90;100.00
19553;BME280;9420;50.876;7.012;2023-02-11T08:11:19;103006.22;;;14.04;100.00
19553;BME280;9420;50.876;7.012;2023-02-11T08:13:48;103005.69;;;13.52;100.00
19553;BME280;9420;50.876;7.012;2023-02-11T08:16:19;103013.44;;;13.84;100.00
19553;BME280;9420;50.876;7.012;2023-02-11T08:18:47;103019.25;;;14.33;100.00
19553;BME280;9420;50.876;7.012;2023-02-11T08:21:15;103021.09;;;14.19;100.00
19553;BME280;9420;50.876;7.012;2023-02-11T08:23:44;103020.59;;;13.64;100.00
19553;BME280;9420;50.876;7.012;2023-02-11T08:26:15;103020.69;;;13.49;100.00
19553;BME280;9420;50.876;7.012;2023-02-11T08:28:44;103025.94;;;13.61;100.00
19553;BME280;9420;50.876;7.012;2023-02-11T08:31:14;103022.00;;;14.16;100.00
19553;BME280;9420;50.876;7.012;2023-02-11T08:33:42;103022.13;;;14.01;100.00
19553;BME280;9420;50.876;7.012;2023-02-11T08:36:11;103029.94;;;14.19;100.00
19553;BME280;9420;50.876;7.012;2023-02-11T08:38:38;103032.84;;;14.91;100.00
19553;BME280;9420;50.876;7.012;2023-02-11T08:41:07;103025.25;;;15.34;100.00
19553;BME280;9420;50.876;7.012;2023-02-11T08:43:35;103019.81;;;15.44;100.00
19553;BME280;9420;50.876;7.012;2023-02-11T08:46:07;103021.19;;;15.04;100.00
19553;BME280;9420;50.876;7.012;2023-02-11T08:48:34;103022.88;;;15.11;100.00
19553;BME280;9420;50.876;7.012;2023-02-11T08:51:05;103021.25;;;14.98;100.00
19553;BME280;9420;50.876;7.012;2023-02-11T08:53:34;103018.16;;;14.54;100.00
19553;BME280;9420;50.876;7.012;2023-02-11T08:56:02;103035.44;;;14.94;100.00
19553;BME280;9420;50.876;7.012;2023-02-11T08:58:31;103033.56;;;15.05;100.00
19553;BME280;9420;50.876;7.012;2023-02-11T09:00:59;103042.47;;;14.98;100.00
19553;BME280;9420;50.876;7.012;2023-02-11T09:03:26;103043.72;;;14.62;100.00
19553;BME280;9420;50.876;7.012;2023-02-11T09:05:54;103042.81;;;14.65;100.00
19553;BME280;9420;50.876;7.012;2023-02-11T09:08:21;103048.81;;;14.85;100.00
19553;BME280;9420;50.876;7.012;2023-02-11T09:10:48;103050.09;;;14.42;100.00
19553;BME280;9420;50.876;7.012;2023-02-11T09:13:16;103060.44;;;14.72;100.00
19553;BME280;9420;50.876;7.012;2023-02-11T09:15:45;103067.97;;;15.14;100.00
19553;BME280;9420;50.876;7.012;2023-02-11T09:18:12;103072.97;;;14.58;100.00
19553;BME280;9420;50.876;7.012;2023-02-11T09:20:39;103078.59;;;14.06;100.00
19553;BME280;9420;50.876;7.012;2023-02-11T09:23:07;103079.63;;;13.78;100.00
19553;BME280;9420;50.876;7.012;2023-02-11T09:25:37;103080.22;;;14.31;100.00
19553;BME280;9420;50.876;7.012;2023-02-11T09:28:08;103077.91;;;13.74;100.00
19553;BME280;9420;50.876;7.012;2023-02-11T09:30:36;103074.88;;;14.38;100.00
19553;BME280;9420;50.876;7.012;2023-02-11T09:33:05;103067.47;;;15.58;100.00
19553;BME280;9420;50.876;7.012;2023-02-11T09:35:33;103076.88;;;13.99;100.00
19553;BME280;9420;50.876;7.012;2023-02-11T09:38:00;103075.94;;;14.08;100.00
19553;BME280;9420;50.876;7.012;2023-02-11T09:40:27;103079.88;;;14.74;100.00
19553;BME280;9420;50.876;7.012;2023-02-11T09:43:03;103077.13;;;14.81;100.00
19553;BME280;9420;50.876;7.012;2023-02-11T09:45:34;103081.31;;;15.05;100.00
19553;BME280;9420;50.876;7.012;2023-02-11T09:48:13;103077.59;;;15.21;100.00
19553;BME280;9420;50.876;7.012;2023-02-11T09:50:45;103076.63;;;15.28;100.00
19553;BME280;9420;50.876;7.012;2023-02-11T09:53:22;103078.88;;;14.84;100.00
19553;BME280;9420;50.876;7.012;2023-02-11T09:55:53;103084.81;;;14.05;100.00
19553;BME280;9420;50.876;7.012;2023-02-11T09:58:26;103087.22;;;15.30;100.00
19553;BME280;9420;50.876;7.012;2023-02-11T10:01:06;103086.19;;;15.44;100.00
19553;BME280;9420;50.876;7.012;2023-02-11T10:04:03;103087.69;;;14.89;100.00
19553;BME280;9420;50.876;7.012;2023-02-11T10:06:45;103084.16;;;14.88;100.00
19553;BME280;9420;50.876;7.012;2023-02-11T10:09:36;103090.06;;;15.13;100.00
19553;BME280;9420;50.876;7.012;2023-02-11T10:12:27;103091.38;;;14.74;100.00
19553;BME280;9420;50.876;7.012;2023-02-11T10:15:17;103091.34;;;14.73;100.00
19553;BME280;9420;50.876;7.012;2023-02-11T10:18:09;103098.13;;;15.05;100.00
19553;BME280;9420;50.876;7.012;2023-02-11T10:20:55;103086.41;;;16.54;100.00
19553;BME280;9420;50.876;7.012;2023-02-11T10:23:28;103105.63;;;16.15;100.00
19553;BME280;9420;50.876;7.012;2023-02-11T10:25:58;103098.50;;;14.68;100.00
19553;BME280;9420;50.876;7.012;2023-02-11T10:28:30;103104.22;;;15.13;100.00
19553;BME280;9420;50.876;7.012;2023-02-11T10:31:01;103098.81;;;15.21;100.00
19553;BME280;9420;50.876;7.012;2023-02-11T10:33:35;103099.56;;;15.34;100.00
19553;BME280;9420;50.876;7.012;2023-02-11T10:36:11;103096.94;;;15.32;100.00
19553;BME280;9420;50.876;7.012;2023-02-11T10:38:39;103089.47;;;14.85;100.00
19553;BME280;9420;50.876;7.012;2023-02-11T10:41:12;103098.25;;;14.92;100.00
19553;BME280;9420;50.876;7.012;2023-02-11T10:43:42;103094.72;;;14.91;100.00
19553;BME280;9420;50.876;7.012;2023-02-11T10:46:16;103098.00;;;15.18;100.00
19553;BME280;9420;50.876;7.012;2023-02-11T10:48:47;103106.78;;;15.24;100.00
19553;BME280;9420;50.876;7.012;2023-02-11T10:51:21;103111.66;;;14.77;100.00
19553;BME280;9420;50.876;7.012;2023-02-11T10:54:08;103111.81;;;14.62;100.00
19553;BME280;9420;50.876;7.012;2023-02-11T10:56:43;103113.66;;;14.48;100.00
19553;BME280;9420;50.876;7.012;2023-02-11T10:59:20;103114.13;;;14.99;100.00
19553;BME280;9420;50.876;7.012;2023-02-11T11:01:56;103118.03;;;14.56;100.00
19553;BME280;9420;50.876;7.012;2023-02-11T11:04:39;103107.28;;;14.74;100.00
19553;BME280;9420;50.876;7.012;2023-02-11T11:07:18;103108.06;;;14.84;100.00
19553;BME280;9420;50.876;7.012;2023-02-11T11:09:50;103110.88;;;14.66;100.00
19553;BME280;9420;50.876;7.012;2023-02-11T11:12:34;103109.59;;;15.06;100.00
19553;BME280;9420;50.876;7.012;2023-02-11T11:15:20;103109.25;;;15.38;100.00
19553;BME280;9420;50.876;7.012;2023-02-11T11:17:48;103109.59;;;15.06;100.00
19553;BME280;9420;50.876;7.012;2023-02-11T11:20:24;103095.25;;;15.25;100.00
19553;BME280;9420;50.876;7.012;2023-02-11T11:23:13;103099.59;;;15.32;100.00
19553;BME280;9420;50.876;7.012;2023-02-11T11:25:44;103098.00;;;15.18;100.00
19553;BME280;9420;50.876;7.012;2023-02-11T11:28:22;103099.09;;;14.97;100.00
19553;BME280;9420;50.876;7.012;2023-02-11T11:30:52;103095.59;;;15.72;100.00
19553;BME280;9420;50.876;7.012;2023-02-11T11:33:25;103093.50;;;15.24;100.00
19553;BME280;9420;50.876;7.012;2023-02-11T11:36:01;103090.66;;;16.08;100.00
19553;BME280;9420;50.876;7.012;2023-02-11T11:38:31;103088.75;;;16.16;100.00
19553;BME280;9420;50.876;7.012;2023-02-11T11:41:19;103091.53;;;15.40;100.00
19553;BME280;9420;50.876;7.012;2023-02-11T11:44:19;103089.63;;;15.55;100.00
19553;BME280;9420;50.876;7.012;2023-02-11T11:47:03;103086.97;;;14.69;100.00
19553;BME280;9420;50.876;7.012;2023-02-11T11:49:40;103083.06;;;15.06;100.00
19553;BME280;9420;50.876;7.012;2023-02-11T11:52:32;103085.09;;;14.83;100.00
19553;BME280;9420;50.876;7.012;2023-02-11T11:55:21;103081.53;;;15.63;100.00
19553;BME280;9420;50.876;7.012;2023-02-11T11:57:49;103084.09;;;14.93;100.00
19553;BME280;9420;50.876;7.012;2023-02-11T12:00:20;103075.13;;;15.77;100.00
19553;BME280;9420;50.876;7.012;2023-02-11T12:03:35;103076.41;;;15.49;100.00
19553;BME280;9420;50.876;7.012;2023-02-11T12:06:24;103077.75;;;15.06;100.00
19553;BME280;9420;50.876;7.012;2023-02-11T12:09:09;103072.28;;;15.21;100.00
19553;BME280;9420;50.876;7.012;2023-02-11T12:14:50;103077.28;;;15.48;100.00
19553;BME280;9420;50.876;7.012;2023-02-11T12:17:39;103074.38;;;16.29;100.00
19553;BME280;9420;50.876;7.012;2023-02-11T12:20:31;103074.06;;;16.50;100.00
19553;BME280;9420;50.876;7.012;2023-02-11T12:23:27;103077.13;;;16.76;100.00
19553;BME280;9420;50.876;7.012;2023-02-11T12:26:10;103088.28;;;15.89;100.00
19553;BME280;9420;50.876;7.012;2023-02-11T12:28:57;103105.38;;;14.85;100.00
19553;BME280;9420;50.876;7.012;2023-02-11T12:31:43;103103.06;;;14.48;100.00
19553;BME280;9420;50.876;7.012;2023-02-11T12:34:41;103097.50;;;14.78;100.00
19553;BME280;9420;50.876;7.012;2023-02-11T12:37:27;103096.63;;;15.62;100.00
19553;BME280;9420;50.876;7.012;2023-02-11T12:40:05;103093.63;;;15.12;100.00
19553;BME280;9420;50.876;7.012;2023-02-11T12:42:56;103098.97;;;15.09;100.00
19553;BME280;9420;50.876;7.012;2023-02-11T12:46:12;103104.03;;;15.30;100.00
19553;BME280;9420;50.876;7.012;2023-02-11T12:49:10;103106.84;;;15.17;100.00
19553;BME280;9420;50.876;7.012;2023-02-11T12:52:06;103109.78;;;14.88;100.00
19553;BME280;9420;50.876;7.012;2023-02-11T12:54:41;103102.81;;;14.78;100.00
19553;BME280;9420;50.876;7.012;2023-02-11T12:57:17;103093.06;;;15.62;100.00
19553;BME280;9420;50.876;7.012;2023-02-11T12:59:55;103088.28;;;15.15;100.00
19553;BME280;9420;50.876;7.012;2023-02-11T13:02:37;103086.78;;;14.90;100.00
19553;BME280;9420;50.876;7.012;2023-02-11T13:05:21;103086.69;;;14.99;100.00
19553;BME280;9420;50.876;7.012;2023-02-11T13:07:52;103081.53;;;14.84;100.00
19553;BME280;9420;50.876;7.012;2023-02-11T13:10:27;103075.59;;;15.44;100.00
19553;BME280;9420;50.876;7.012;2023-02-11T13:12:58;103080.50;;;14.98;100.00
19553;BME280;9420;50.876;7.012;2023-02-11T13:15:50;103083.63;;;15.34;100.00
19553;BME280;9420;50.876;7.012;2023-02-11T13:18:41;103078.25;;;15.41;100.00
19553;BME280;9420;50.876;7.012;2023-02-11T13:21:36;103072.16;;;15.33;100.00
19553;BME280;9420;50.876;7.012;2023-02-11T13:24:18;103074.56;;;15.56;100.00
19553;BME280;9420;50.876;7.012;2023-02-11T13:26:54;103067.13;;;15.09;100.00
19553;BME280;9420;50.876;7.012;2023-02-11T13:29:35;103075.38;;;15.62;100.00
19553;BME280;9420;50.876;7.012;2023-02-11T13:32:11;103071.31;;;15.97;100.00
19553;BME280;9420;50.876;7.012;2023-02-11T13:34:56;103068.31;;;15.58;100.00